Time;durP1;ratioP1;P1;durP2;ratioP2;P2;SDS_P1;SDS_P2;PMS_P1;PMS_P2;Temp;Humidity;BMP_temperature;BMP_pressure;BME280_temperature;BME280_humidity;BME280_pressure;Samples;Min_cycle;Max_cycle;Signal;HPM_P1;HPM_P2
2023/07/25 00:00:51;;;;;;;0.88;0.40;;;13.70;1.00;;;;;;5064981;28;20490;-80
2023/07/25 00:03:17;;;;;;;0.57;0.40;;;13.60;99.90;;;;;;5044766;28;20045;-80
2023/07/25 00:05:44;;;;;;;0.63;0.45;;;13.60;1.00;;;;;;5027797;28;20063;-79
2023/07/25 00:08:11;;;;;;;0.40;0.40;;;13.50;1.00;;;;;;5048243;28;20124;-80
2023/07/25 00:10:38;;;;;;;0.32;0.32;;;13.50;1.00;;;;;;5065414;28;20044;-80
2023/07/25 00:13:04;;;;;;;0.88;0.43;;;13.50;1.00;;;;;;5064825;28;20059;-80
2023/07/25 00:15:31;;;;;;;0.70;0.60;;;13.40;1.00;;;;;;5056162;28;20105;-80
2023/07/25 00:17:58;;;;;;;0.57;0.38;;;13.50;5.10;;;;;;5064887;28;20056;-80
2023/07/25 00:20:25;;;;;;;0.30;0.30;;;13.50;57.70;;;;;;5066093;28;20040;-80
2023/07/25 00:22:52;;;;;;;0.40;0.32;;;13.40;21.70;;;;;;5066648;28;20048;-80
2023/07/25 00:25:19;;;;;;;0.30;0.30;;;13.40;25.10;;;;;;5065975;28;20045;-79
2023/07/25 00:27:45;;;;;;;0.47;0.32;;;13.40;1.00;;;;;;5046498;28;20057;-79
2023/07/25 00:30:12;;;;;;;0.65;0.50;;;13.30;26.10;;;;;;5029080;28;20552;-80
2023/07/25 00:32:39;;;;;;;0.40;0.40;;;13.30;27.50;;;;;;5063987;28;20045;-81
2023/07/25 00:35:06;;;;;;;0.52;0.47;;;13.20;51.40;;;;;;5064463;28;20041;-81
2023/07/25 00:37:32;;;;;;;0.77;0.40;;;13.20;58.80;;;;;;5065364;28;20101;-80
2023/07/25 00:39:59;;;;;;;1.10;0.47;;;13.20;82.00;;;;;;5048037;28;20057;-79
2023/07/25 00:42:26;;;;;;;0.77;0.50;;;13.20;99.90;;;;;;5048223;28;20102;-79
2023/07/25 00:44:53;;;;;;;1.10;0.60;;;13.20;99.90;;;;;;5065310;28;20045;-80
2023/07/25 00:47:21;;;;;;;0.85;0.55;;;13.20;99.90;;;;;;5063465;28;20060;-79
2023/07/25 00:49:48;;;;;;;0.90;0.50;;;13.20;99.90;;;;;;5048214;28;20143;-79
2023/07/25 00:52:15;;;;;;;0.30;0.20;;;13.20;99.90;;;;;;5030769;28;20102;-80
2023/07/25 00:54:49;;;;;;;0.47;0.47;;;13.10;99.90;;;;;;5066418;28;20044;-80
2023/07/25 00:57:17;;;;;;;1.25;0.70;;;13.10;99.90;;;;;;5064162;28;20121;-79
2023/07/25 00:59:44;;;;;;;0.47;0.45;;;13.10;99.90;;;;;;5063857;28;20112;-80
2023/07/25 01:02:12;;;;;;;0.82;0.43;;;13.10;99.90;;;;;;5041838;28;20072;-79
2023/07/25 01:04:39;;;;;;;0.57;0.32;;;13.00;99.90;;;;;;5040448;28;20128;-79
2023/07/25 01:07:06;;;;;;;0.40;0.40;;;13.00;99.90;;;;;;5044863;28;20059;-78
2023/07/25 01:09:40;;;;;;;0.40;0.40;;;13.00;99.90;;;;;;5028830;28;20048;-79
2023/07/25 01:12:08;;;;;;;0.68;0.57;;;13.00;99.90;;;;;;5063893;28;20051;-80
2023/07/25 01:14:35;;;;;;;0.40;0.40;;;13.00;99.90;;;;;;5027460;28;20119;-80
2023/07/25 01:17:15;;;;;;;0.35;0.35;;;12.90;99.90;;;;;;5041634;28;20080;-79
2023/07/25 01:19:43;;;;;;;0.75;0.55;;;12.90;99.90;;;;;;5047996;28;20739;-79
2023/07/25 01:22:10;;;;;;;0.50;0.40;;;12.80;99.90;;;;;;5063556;28;20051;-79
2023/07/25 01:24:40;;;;;;;1.25;0.52;;;12.90;99.90;;;;;;5047466;28;20056;-79
2023/07/25 01:27:07;;;;;;;0.25;0.25;;;12.90;99.90;;;;;;5047270;28;20549;-79
2023/07/25 01:29:34;;;;;;;0.47;0.35;;;12.90;99.90;;;;;;5027718;28;20049;-80
2023/07/25 01:32:01;;;;;;;0.40;0.40;;;12.90;99.90;;;;;;5055703;28;20040;-79
2023/07/25 01:34:28;;;;;;;0.30;0.30;;;12.90;99.90;;;;;;5028371;28;20045;-79
2023/07/25 01:36:55;;;;;;;0.65;0.47;;;12.90;1.00;;;;;;5063628;28;20144;-78
2023/07/25 01:39:22;;;;;;;0.63;0.40;;;12.90;1.00;;;;;;5064585;28;20056;-79
2023/07/25 01:41:48;;;;;;;0.35;0.35;;;13.00;1.00;;;;;;5072110;28;20053;-78
2023/07/25 01:44:15;;;;;;;0.30;0.30;;;12.90;1.00;;;;;;5067645;28;20048;-79
2023/07/25 01:46:42;;;;;;;0.50;0.40;;;12.90;1.00;;;;;;5060087;28;20114;-78
2023/07/25 01:49:10;;;;;;;0.45;0.40;;;12.90;1.00;;;;;;5065134;28;20044;-79
2023/07/25 01:51:37;;;;;;;0.38;0.30;;;12.80;1.00;;;;;;5031469;28;20052;-78
2023/07/25 01:54:04;;;;;;;0.20;0.20;;;12.80;1.00;;;;;;5047477;28;20048;-79
2023/07/25 01:56:31;;;;;;;0.60;0.45;;;12.80;1.00;;;;;;5029140;28;20053;-79
2023/07/25 01:58:58;;;;;;;0.88;0.68;;;12.90;1.00;;;;;;5045288;28;20044;-79
2023/07/25 02:01:24;;;;;;;0.93;0.45;;;12.90;1.00;;;;;;5047320;28;20053;-79
2023/07/25 02:03:51;;;;;;;1.23;0.60;;;12.90;1.00;;;;;;5046932;28;20098;-79
2023/07/25 02:06:18;;;;;;;0.45;0.45;;;12.90;1.00;;;;;;5066176;28;20524;-79
2023/07/25 02:08:45;;;;;;;0.93;0.50;;;12.90;13.90;;;;;;5065285;28;20113;-78
2023/07/25 02:11:12;;;;;;;0.52;0.50;;;12.90;16.80;;;;;;5062783;28;20791;-79
2023/07/25 02:13:39;;;;;;;0.60;0.30;;;12.90;39.80;;;;;;5070605;28;20048;-79
2023/07/25 02:16:06;;;;;;;0.52;0.50;;;12.90;47.10;;;;;;5048170;28;20098;-79
2023/07/25 02:18:33;;;;;;;0.60;0.50;;;12.90;72.60;;;;;;5048424;28;20056;-79
2023/07/25 02:20:59;;;;;;;0.43;0.40;;;12.90;66.30;;;;;;5064746;28;20055;-79
2023/07/25 02:23:26;;;;;;;0.50;0.50;;;12.80;64.70;;;;;;5046064;28;20053;-79
2023/07/25 02:25:53;;;;;;;0.55;0.40;;;12.80;54.30;;;;;;5045541;28;20045;-79
2023/07/25 02:28:19;;;;;;;0.30;0.30;;;12.70;44.50;;;;;;5052156;28;20101;-79
2023/07/25 02:30:46;;;;;;;0.50;0.47;;;12.70;39.70;;;;;;5064726;28;20483;-80
2023/07/25 02:33:14;;;;;;;0.38;0.38;;;12.70;37.20;;;;;;5045766;28;20052;-79
2023/07/25 02:35:40;;;;;;;0.93;0.40;;;12.60;70.00;;;;;;5064510;28;20052;-79
2023/07/25 02:38:08;;;;;;;1.13;0.50;;;12.70;79.80;;;;;;5084002;28;20131;-78
2023/07/25 02:40:35;;;;;;;0.43;0.30;;;12.70;73.40;;;;;;5067292;28;20329;-79
2023/07/25 02:43:03;;;;;;;0.25;0.25;;;12.70;80.90;;;;;;5075179;28;20189;-79
2023/07/25 02:45:30;;;;;;;0.50;0.50;;;12.70;94.80;;;;;;5048325;28;20051;-79
2023/07/25 02:47:56;;;;;;;0.85;0.50;;;12.70;95.50;;;;;;5064320;28;21362;-79
2023/07/25 02:50:23;;;;;;;0.65;0.50;;;12.60;85.20;;;;;;5049748;28;20390;-79
2023/07/25 02:52:50;;;;;;;0.55;0.40;;;12.60;79.40;;;;;;5052583;28;20492;-78
2023/07/25 02:55:18;;;;;;;1.20;0.50;;;12.60;98.70;;;;;;5067533;28;20051;-79
2023/07/25 02:57:44;;;;;;;0.60;0.43;;;12.60;99.90;;;;;;5067125;28;20047;-79
2023/07/25 03:00:13;;;;;;;0.40;0.40;;;12.70;99.90;;;;;;5083425;28;20464;-80
2023/07/25 03:02:40;;;;;;;0.38;0.38;;;12.80;99.90;;;;;;5077888;28;20657;-79
2023/07/25 03:05:06;;;;;;;1.80;0.47;;;12.90;99.90;;;;;;5044820;28;20396;-79
2023/07/25 03:07:33;;;;;;;1.25;0.60;;;12.90;99.90;;;;;;5065873;28;20072;-79
2023/07/25 03:10:00;;;;;;;1.00;0.63;;;13.00;99.90;;;;;;5084781;28;20475;-79
2023/07/25 03:12:27;;;;;;;0.77;0.57;;;13.00;99.90;;;;;;5064684;28;20059;-79
2023/07/25 03:14:54;;;;;;;0.50;0.32;;;13.00;99.90;;;;;;5066122;28;20098;-79
2023/07/25 03:17:20;;;;;;;0.60;0.60;;;13.00;99.90;;;;;;5063463;28;20056;-79
2023/07/25 03:19:47;;;;;;;0.70;0.43;;;13.10;99.90;;;;;;5063776;28;20098;-79
2023/07/25 03:22:16;;;;;;;0.63;0.52;;;13.10;99.90;;;;;;5048374;28;20048;-79
2023/07/25 03:24:43;;;;;;;0.50;0.47;;;13.10;99.90;;;;;;5044359;28;20114;-79
2023/07/25 03:27:10;;;;;;;0.50;0.40;;;13.20;99.90;;;;;;5057479;28;20144;-79
2023/07/25 03:29:36;;;;;;;0.55;0.55;;;13.20;99.90;;;;;;5069650;28;20109;-79
2023/07/25 03:32:03;;;;;;;0.68;0.50;;;13.20;99.90;;;;;;5069391;28;20086;-80
2023/07/25 03:34:30;;;;;;;0.52;0.47;;;13.20;99.90;;;;;;5068094;28;20048;-79
2023/07/25 03:36:57;;;;;;;0.50;0.43;;;13.20;99.90;;;;;;5086245;28;20153;-79
2023/07/25 03:39:23;;;;;;;0.55;0.52;;;13.10;99.90;;;;;;5065429;28;20040;-79
2023/07/25 03:41:50;;;;;;;0.88;0.60;;;13.10;99.90;;;;;;5050515;28;20097;-79
2023/07/25 03:44:18;;;;;;;0.60;0.57;;;13.20;99.90;;;;;;5055330;28;20525;-79
2023/07/25 03:46:44;;;;;;;1.60;0.75;;;13.20;99.90;;;;;;5049754;28;20169;-79
2023/07/25 03:49:11;;;;;;;0.63;0.50;;;13.30;99.90;;;;;;5051179;28;20510;-79
2023/07/25 03:51:38;;;;;;;0.60;0.50;;;13.20;99.90;;;;;;5058788;28;20050;-79
2023/07/25 03:54:06;;;;;;;0.90;0.50;;;13.30;99.90;;;;;;5071042;28;20060;-79
2023/07/25 03:56:33;;;;;;;1.05;0.73;;;13.30;99.90;;;;;;5050938;28;20478;-79
2023/07/25 03:59:00;;;;;;;1.15;0.40;;;13.30;99.90;;;;;;5048498;28;20407;-79
2023/07/25 04:01:27;;;;;;;0.82;0.50;;;13.30;99.90;;;;;;5049879;28;20049;-79
2023/07/25 04:03:53;;;;;;;0.80;0.60;;;13.30;99.90;;;;;;5066720;28;20596;-79
2023/07/25 04:06:20;;;;;;;0.50;0.40;;;13.30;99.90;;;;;;5066759;28;20073;-80
2023/07/25 04:08:47;;;;;;;1.15;0.60;;;13.30;99.90;;;;;;5080795;28;20052;-79
2023/07/25 04:11:15;;;;;;;0.80;0.52;;;13.40;99.90;;;;;;5085747;28;20079;-79
2023/07/25 04:13:41;;;;;;;0.57;0.50;;;13.30;99.90;;;;;;5074436;28;20044;-80
2023/07/25 04:16:08;;;;;;;1.13;0.60;;;13.30;99.90;;;;;;5067031;28;20048;-80
2023/07/25 04:18:35;;;;;;;0.73;0.60;;;13.30;99.90;;;;;;5067079;28;20052;-79
2023/07/25 04:21:01;;;;;;;0.98;0.65;;;13.30;99.90;;;;;;5066327;28;20752;-79
2023/07/25 04:23:28;;;;;;;0.60;0.50;;;13.30;99.90;;;;;;5066636;28;20044;-79
2023/07/25 04:25:55;;;;;;;0.52;0.50;;;13.30;99.90;;;;;;5068297;28;20049;-79
2023/07/25 04:28:22;;;;;;;1.38;0.70;;;13.30;99.90;;;;;;5066595;28;20098;-80
2023/07/25 04:30:49;;;;;;;0.70;0.50;;;13.30;99.90;;;;;;5064226;28;20483;-79
2023/07/25 04:33:15;;;;;;;0.82;0.60;;;13.30;99.90;;;;;;5067914;28;20049;-79
2023/07/25 04:35:45;;;;;;;3.40;0.70;;;13.30;99.90;;;;;;5072636;28;20577;-79
2023/07/25 04:38:13;;;;;;;0.63;0.38;;;13.30;99.90;;;;;;5086032;28;20039;-79
2023/07/25 04:40:41;;;;;;;0.70;0.60;;;13.30;99.90;;;;;;5087285;28;20109;-79
2023/07/25 04:43:08;;;;;;;0.60;0.60;;;13.30;99.90;;;;;;5077445;28;20049;-79
2023/07/25 04:45:35;;;;;;;1.00;0.75;;;13.40;99.90;;;;;;5061448;28;20764;-81
2023/07/25 04:48:02;;;;;;;0.40;0.40;;;13.40;99.90;;;;;;5065601;28;20055;-78
2023/07/25 04:50:29;;;;;;;0.63;0.60;;;13.40;99.90;;;;;;5064604;28;20048;-81
2023/07/25 04:52:56;;;;;;;0.77;0.60;;;13.40;99.90;;;;;;5065823;28;20052;-80
2023/07/25 04:55:23;;;;;;;0.50;0.47;;;13.40;99.90;;;;;;5063702;28;20057;-79
2023/07/25 04:57:50;;;;;;;0.30;0.30;;;13.50;99.90;;;;;;5077291;28;20487;-80
2023/07/25 05:00:17;;;;;;;0.52;0.50;;;13.50;99.90;;;;;;5052422;28;20039;-81
2023/07/25 05:02:44;;;;;;;0.45;0.40;;;13.60;99.90;;;;;;5073368;28;20445;-80
2023/07/25 05:05:11;;;;;;;0.47;0.30;;;13.60;99.90;;;;;;5044232;28;20052;-81
2023/07/25 05:07:38;;;;;;;0.40;0.35;;;13.60;99.90;;;;;;5040878;28;20406;-81
2023/07/25 05:10:05;;;;;;;0.50;0.50;;;13.70;99.90;;;;;;5051985;28;20114;-81
2023/07/25 05:12:32;;;;;;;0.93;0.50;;;13.70;99.90;;;;;;5059323;28;20036;-81
2023/07/25 05:14:59;;;;;;;0.70;0.50;;;13.70;99.90;;;;;;5069263;28;20347;-81
2023/07/25 05:17:26;;;;;;;0.80;0.63;;;13.80;99.90;;;;;;5070069;28;20101;-82
2023/07/25 05:19:52;;;;;;;0.60;0.52;;;13.80;99.90;;;;;;5035757;28;20529;-82
2023/07/25 05:22:19;;;;;;;0.60;0.55;;;13.80;99.90;;;;;;5073598;28;20127;-81
2023/07/25 05:24:46;;;;;;;0.57;0.57;;;13.80;99.90;;;;;;5071049;28;20056;-81
2023/07/25 05:27:13;;;;;;;0.70;0.70;;;13.80;99.90;;;;;;5055726;28;20349;-81
2023/07/25 05:29:40;;;;;;;0.85;0.60;;;13.90;99.90;;;;;;5071898;28;20144;-81
2023/07/25 05:32:07;;;;;;;1.23;0.50;;;13.90;99.90;;;;;;5066918;28;20473;-81
2023/07/25 05:34:33;;;;;;;0.98;0.68;;;13.90;99.90;;;;;;5072560;28;20105;-81
2023/07/25 05:37:00;;;;;;;0.70;0.60;;;14.00;99.90;;;;;;5080803;28;20048;-82
2023/07/25 05:39:27;;;;;;;0.93;0.65;;;14.00;99.90;;;;;;5070647;28;20098;-81
2023/07/25 05:41:54;;;;;;;0.90;0.63;;;14.00;99.90;;;;;;5064537;28;20036;-81
2023/07/25 05:44:21;;;;;;;0.70;0.50;;;14.10;99.90;;;;;;5064480;28;20045;-80
2023/07/25 05:46:47;;;;;;;0.38;0.38;;;14.20;99.90;;;;;;5062292;28;20063;-77
2023/07/25 05:49:14;;;;;;;0.73;0.63;;;14.20;99.90;;;;;;5066645;28;20577;-76
2023/07/25 05:51:41;;;;;;;0.60;0.60;;;14.30;99.90;;;;;;5060362;28;20106;-83
2023/07/25 05:54:08;;;;;;;0.45;0.45;;;14.30;99.90;;;;;;5055112;28;20451;-84
2023/07/25 05:56:35;;;;;;;1.15;0.70;;;14.30;99.90;;;;;;5058666;28;20067;-84
2023/07/25 05:59:02;;;;;;;0.65;0.40;;;14.30;78.70;;;;;;5024623;28;20052;-84
2023/07/25 06:01:29;;;;;;;0.98;0.75;;;14.40;47.20;;;;;;5052553;28;20167;-85
2023/07/25 06:03:57;;;;;;;1.05;0.65;;;14.50;64.90;;;;;;5034014;28;20423;-84
2023/07/25 06:06:24;;;;;;;1.00;0.70;;;14.50;9.00;;;;;;5059714;28;20492;-84
2023/07/25 06:08:53;;;;;;;0.77;0.43;;;14.50;1.00;;;;;;5021912;28;20577;-85
2023/07/25 06:11:21;;;;;;;0.80;0.70;;;14.50;1.00;;;;;;5047550;28;20586;-82
2023/07/25 06:13:49;;;;;;;1.20;0.60;;;14.50;1.00;;;;;;5023471;28;20107;-86
2023/07/25 06:16:16;;;;;;;1.35;0.88;;;14.50;1.00;;;;;;5026454;28;20059;-85
2023/07/25 06:18:43;;;;;;;0.77;0.70;;;14.50;26.70;;;;;;5016690;28;20086;-86
2023/07/25 06:21:10;;;;;;;1.08;0.60;;;14.40;23.80;;;;;;5038122;28;20049;-85
2023/07/25 06:23:37;;;;;;;0.63;0.63;;;14.50;45.90;;;;;;5035068;28;20140;-85
2023/07/25 06:26:04;;;;;;;1.10;0.63;;;14.50;49.60;;;;;;5015986;28;20098;-84
2023/07/25 06:28:33;;;;;;;0.75;0.70;;;14.50;40.90;;;;;;5032026;28;20054;-85
2023/07/25 06:31:02;;;;;;;0.88;0.70;;;14.60;78.60;;;;;;5022262;28;20118;-84
2023/07/25 06:33:29;;;;;;;0.77;0.60;;;14.60;53.00;;;;;;5039712;28;20049;-87
2023/07/25 06:35:56;;;;;;;1.33;0.80;;;14.70;38.00;;;;;;5025696;28;20514;-86
2023/07/25 06:38:23;;;;;;;0.88;0.52;;;14.80;1.00;;;;;;5044221;28;20388;-84
2023/07/25 06:40:50;;;;;;;0.60;0.60;;;14.90;1.00;;;;;;5044542;28;20461;-84
2023/07/25 06:43:17;;;;;;;0.63;0.60;;;15.00;99.90;;;;;;5013834;28;20044;-85
2023/07/25 06:45:44;;;;;;;0.75;0.70;;;15.10;99.90;;;;;;5053394;28;20048;-86
2023/07/25 06:48:11;;;;;;;1.45;0.70;;;15.10;99.90;;;;;;5046011;28;20114;-87
2023/07/25 06:50:38;;;;;;;1.05;0.73;;;15.20;99.90;;;;;;5027640;28;20056;-85
2023/07/25 06:53:04;;;;;;;1.55;1.00;;;15.20;99.90;;;;;;5049580;28;20037;-84
2023/07/25 06:55:31;;;;;;;1.40;0.77;;;15.20;1.00;;;;;;5050439;28;20049;-83
2023/07/25 06:57:58;;;;;;;1.08;0.70;;;15.20;1.00;;;;;;5027633;28;20053;-85
2023/07/25 07:00:25;;;;;;;1.33;0.77;;;15.30;64.00;;;;;;5011038;28;20063;-84
2023/07/25 07:02:53;;;;;;;1.20;0.90;;;15.30;82.10;;;;;;5038136;28;20063;-85
2023/07/25 07:05:20;;;;;;;1.63;0.73;;;15.30;1.00;;;;;;5024353;28;20518;-85
2023/07/25 07:07:50;;;;;;;1.20;0.90;;;15.40;99.90;;;;;;5039512;28;20049;-85
2023/07/25 07:10:17;;;;;;;0.77;0.77;;;15.50;99.90;;;;;;5026869;28;20065;-85
2023/07/25 07:12:47;;;;;;;1.20;0.93;;;15.60;99.90;;;;;;5029342;28;20052;-85
2023/07/25 07:15:15;;;;;;;1.55;1.08;;;15.60;1.00;;;;;;5025199;28;20544;-85
2023/07/25 07:17:42;;;;;;;1.23;0.80;;;15.70;99.90;;;;;;5029087;28;20052;-85
2023/07/25 07:20:09;;;;;;;1.88;1.20;;;15.70;99.90;;;;;;5023428;28;20064;-85
2023/07/25 07:22:36;;;;;;;2.55;1.08;;;15.70;99.90;;;;;;5019254;28;20428;-84
2023/07/25 07:25:03;;;;;;;2.00;1.00;;;15.70;10.10;;;;;;5025535;28;20041;-85
2023/07/25 07:27:30;;;;;;;1.92;1.10;;;15.80;1.00;;;;;;5018134;28;20087;-85
2023/07/25 07:29:57;;;;;;;0.90;0.68;;;15.80;99.90;;;;;;5026841;28;20057;-86
2023/07/25 07:32:24;;;;;;;0.95;0.70;;;15.90;99.90;;;;;;5011035;28;20049;-85
2023/07/25 07:34:51;;;;;;;1.17;0.63;;;15.90;1.00;;;;;;5018260;28;20080;-85
2023/07/25 07:37:18;;;;;;;1.77;1.00;;;15.90;93.90;;;;;;5021211;28;20110;-84
2023/07/25 07:39:44;;;;;;;1.20;1.05;;;15.90;1.00;;;;;;5024328;28;20052;-85
2023/07/25 07:42:11;;;;;;;1.05;0.60;;;16.00;99.90;;;;;;5029104;28;20082;-85
2023/07/25 07:44:38;;;;;;;1.27;0.90;;;16.00;99.90;;;;;;5029660;28;20049;-84
2023/07/25 07:47:06;;;;;;;1.13;0.70;;;16.00;92.10;;;;;;5041171;28;20045;-81
2023/07/25 07:49:33;;;;;;;1.10;0.63;;;16.10;2.20;;;;;;5058872;28;20041;-82
2023/07/25 07:52:01;;;;;;;0.88;0.60;;;16.20;1.00;;;;;;5038368;28;20045;-80
2023/07/25 07:54:40;;;;;;;0.70;0.50;;;16.30;99.90;;;;;;5018122;28;20092;-82
2023/07/25 07:57:07;;;;;;;0.88;0.70;;;16.50;99.90;;;;;;5045887;28;20075;-81
2023/07/25 07:59:34;;;;;;;1.55;0.82;;;16.70;99.90;;;;;;5033511;28;20044;-80
2023/07/25 08:02:01;;;;;;;1.73;0.90;;;17.00;99.90;;;;;;5035385;28;20045;-80
2023/07/25 08:04:28;;;;;;;1.27;1.00;;;17.10;74.30;;;;;;5034225;28;20048;-79
2023/07/25 08:06:54;;;;;;;1.95;1.00;;;17.20;73.90;;;;;;5041064;28;20055;-81
2023/07/25 08:09:21;;;;;;;1.83;1.10;;;17.30;1.00;;;;;;5050850;28;20052;-80
2023/07/25 08:11:48;;;;;;;1.25;0.90;;;17.30;1.00;;;;;;5046913;28;20119;-81
2023/07/25 08:14:15;;;;;;;2.65;0.95;;;17.20;99.90;;;;;;5053819;28;20049;-80
2023/07/25 08:16:41;;;;;;;1.05;0.77;;;17.20;99.90;;;;;;5028019;28;20060;-80
2023/07/25 08:19:08;;;;;;;1.52;0.60;;;17.20;99.90;;;;;;5059453;28;20170;-80
2023/07/25 08:21:35;;;;;;;0.85;0.75;;;17.10;99.90;;;;;;5048009;28;20056;-81
2023/07/25 08:24:03;;;;;;;1.00;0.90;;;17.10;99.90;;;;;;5052940;28;20048;-81
2023/07/25 08:26:30;;;;;;;1.02;0.70;;;17.10;99.90;;;;;;5043991;28;20075;-80
2023/07/25 08:28:57;;;;;;;0.63;0.60;;;17.20;99.90;;;;;;5055591;28;20048;-81
2023/07/25 08:31:24;;;;;;;0.57;0.50;;;17.30;99.90;;;;;;5034283;28;20098;-81
2023/07/25 08:33:51;;;;;;;0.88;0.70;;;17.50;99.90;;;;;;5047326;28;20792;-82
2023/07/25 08:36:17;;;;;;;0.80;0.50;;;17.80;99.90;;;;;;5055468;28;20052;-81
2023/07/25 08:38:44;;;;;;;0.52;0.50;;;17.90;51.40;;;;;;5024578;28;20072;-81
2023/07/25 08:41:19;;;;;;;0.60;0.60;;;18.00;53.80;;;;;;5045007;28;20055;-80
2023/07/25 08:43:45;;;;;;;0.73;0.60;;;17.90;86.80;;;;;;5024282;28;20053;-81
2023/07/25 08:46:14;;;;;;;1.65;0.90;;;17.80;99.90;;;;;;5028764;28;20049;-80
2023/07/25 08:48:41;;;;;;;1.25;0.68;;;17.60;67.30;;;;;;5049695;28;20658;-81
2023/07/25 08:51:19;;;;;;;0.75;0.55;;;17.50;99.90;;;;;;5042609;28;20052;-78
2023/07/25 08:54:05;;;;;;;1.30;0.85;;;17.50;99.90;;;;;;5044897;28;20059;-79
2023/07/25 08:56:38;;;;;;;1.60;0.52;;;17.30;99.90;;;;;;5036915;28;20057;-78
2023/07/25 08:59:04;;;;;;;0.73;0.55;;;17.30;99.90;;;;;;5050858;28;20450;-79
2023/07/25 09:01:31;;;;;;;2.53;0.98;;;17.30;99.90;;;;;;5034461;28;20862;-78
2023/07/25 09:03:59;;;;;;;1.20;0.63;;;17.30;75.10;;;;;;5050897;28;20063;-79
2023/07/25 09:06:26;;;;;;;1.60;1.10;;;17.40;99.90;;;;;;5028905;28;20134;-79
2023/07/25 09:08:54;;;;;;;1.80;0.98;;;17.40;40.80;;;;;;5030852;28;20118;-79
2023/07/25 09:11:20;;;;;;;1.23;0.88;;;17.50;1.00;;;;;;5024440;28;20057;-78
2023/07/25 09:13:48;;;;;;;1.38;0.90;;;17.60;5.10;;;;;;5033611;28;20163;-78
2023/07/25 09:16:15;;;;;;;1.55;0.88;;;17.70;15.20;;;;;;5038019;28;20106;-79
2023/07/25 09:18:43;;;;;;;1.55;0.80;;;17.90;1.40;;;;;;5025467;28;20159;-79
2023/07/25 09:21:11;;;;;;;1.63;1.00;;;18.10;1.00;;;;;;5046643;28;20041;-78
2023/07/25 09:23:40;;;;;;;1.13;0.95;;;18.10;1.00;;;;;;5034006;28;20386;-79
2023/07/25 09:26:10;;;;;;;1.13;0.90;;;18.20;1.00;;;;;;5053259;28;20056;-79
2023/07/25 09:28:48;;;;;;;1.42;0.90;;;18.40;1.00;;;;;;5011195;28;20053;-79
2023/07/25 09:31:15;;;;;;;1.65;1.10;;;18.60;1.00;;;;;;5018885;28;20052;-78
2023/07/25 09:33:42;;;;;;;2.25;0.90;;;18.90;1.00;;;;;;5037266;28;20041;-79
2023/07/25 09:36:09;;;;;;;1.13;0.80;;;19.00;1.00;;;;;;5053866;28;20057;-79
2023/07/25 09:38:36;;;;;;;0.95;0.80;;;18.90;1.00;;;;;;5057272;28;20103;-79
2023/07/25 09:41:04;;;;;;;1.10;0.63;;;19.00;1.00;;;;;;5022292;28;20491;-78
2023/07/25 09:43:30;;;;;;;0.80;0.60;;;19.20;1.00;;;;;;5043414;28;20098;-78
2023/07/25 09:45:57;;;;;;;0.60;0.55;;;19.20;1.00;;;;;;5040802;28;20115;-78
2023/07/25 09:48:24;;;;;;;1.67;0.80;;;19.20;1.00;;;;;;5018213;28;20055;-78
2023/07/25 09:50:50;;;;;;;0.98;0.60;;;19.40;1.00;;;;;;5038271;28;20056;-78
2023/07/25 09:53:17;;;;;;;1.00;0.60;;;19.60;1.00;;;;;;5040718;28;20044;-78
2023/07/25 09:55:45;;;;;;;2.80;0.93;;;19.80;1.00;;;;;;5032714;28;20076;-78
2023/07/25 09:58:12;;;;;;;1.52;0.90;;;19.70;1.00;;;;;;5021791;28;20061;-78
2023/07/25 10:00:40;;;;;;;0.70;0.70;;;19.60;1.00;;;;;;5042542;28;20060;-78
2023/07/25 10:03:08;;;;;;;0.68;0.50;;;19.40;1.00;;;;;;5028305;28;20812;-79
2023/07/25 10:05:42;;;;;;;1.23;0.68;;;19.40;1.00;;;;;;5040263;28;20059;-78
2023/07/25 10:08:09;;;;;;;0.60;0.50;;;19.30;1.00;;;;;;5043083;28;20506;-78
2023/07/25 10:10:36;;;;;;;1.33;0.70;;;19.40;1.00;;;;;;5048655;28;20052;-78
2023/07/25 10:13:03;;;;;;;0.50;0.50;;;19.60;1.00;;;;;;5046535;28;20199;-78
2023/07/25 10:15:30;;;;;;;0.60;0.57;;;19.90;1.00;;;;;;5005642;28;20057;-78
2023/07/25 10:18:02;;;;;;;0.80;0.70;;;20.00;1.00;;;;;;5023183;28;20139;-78
2023/07/25 10:20:29;;;;;;;1.35;0.80;;;20.20;1.00;;;;;;5036362;28;20053;-78
2023/07/25 10:23:09;;;;;;;1.00;0.63;;;20.20;1.00;;;;;;5037513;28;20053;-79
2023/07/25 10:25:36;;;;;;;1.02;0.55;;;20.30;1.00;;;;;;5056614;28;20059;-78
2023/07/25 10:28:03;;;;;;;0.55;0.55;;;20.20;1.00;;;;;;5056329;28;20053;-79
2023/07/25 10:30:32;;;;;;;0.75;0.60;;;20.10;1.00;;;;;;5054001;28;20063;-78
2023/07/25 10:33:06;;;;;;;0.63;0.40;;;20.00;1.00;;;;;;5027445;28;20044;-78
2023/07/25 10:35:44;;;;;;;1.70;0.50;;;19.90;1.00;;;;;;5039812;28;20109;-78
2023/07/25 10:38:13;;;;;;;0.80;0.55;;;19.90;1.00;;;;;;5057454;28;20048;-79
2023/07/25 10:41:08;;;;;;;0.75;0.73;;;19.80;1.00;;;;;;5040070;28;20052;-79
2023/07/25 10:43:44;;;;;;;1.10;0.52;;;19.80;1.00;;;;;;5053166;28;20142;-79
2023/07/25 10:46:19;;;;;;;1.38;1.00;;;20.00;1.00;;;;;;5044785;28;20116;-77
2023/07/25 10:48:46;;;;;;;0.82;0.60;;;20.00;1.00;;;;;;5033083;28;20530;-79
2023/07/25 10:51:15;;;;;;;1.80;0.70;;;20.10;1.00;;;;;;5040632;28;20055;-79
2023/07/25 10:54:05;;;;;;;1.10;0.63;;;20.30;1.00;;;;;;5042413;28;20318;-79
2023/07/25 10:56:32;;;;;;;1.55;0.80;;;20.20;1.00;;;;;;5028357;28;20052;-78
2023/07/25 10:59:08;;;;;;;2.05;0.82;;;20.40;1.00;;;;;;5030533;28;20050;-78
2023/07/25 11:01:50;;;;;;;1.25;0.70;;;20.30;1.00;;;;;;5055537;28;20052;-78
2023/07/25 11:04:30;;;;;;;1.48;0.85;;;20.10;1.00;;;;;;5031771;28;20620;-77
2023/07/25 11:07:10;;;;;;;1.10;0.70;;;20.30;1.00;;;;;;5019549;28;20059;-79
2023/07/25 11:09:41;;;;;;;1.00;0.80;;;20.20;1.00;;;;;;5040792;28;20617;-79
2023/07/25 11:12:09;;;;;;;1.52;0.73;;;20.30;1.00;;;;;;5015327;28;20056;-78
2023/07/25 11:14:41;;;;;;;1.20;0.60;;;20.10;1.00;;;;;;5044098;28;20056;-78
2023/07/25 11:17:08;;;;;;;1.13;0.60;;;20.40;1.00;;;;;;5008998;28;20476;-79
2023/07/25 11:19:34;;;;;;;0.75;0.60;;;20.80;1.00;;;;;;5038984;28;20055;-78
2023/07/25 11:22:07;;;;;;;1.30;0.90;;;21.00;1.00;;;;;;5042655;28;20044;-78
2023/07/25 11:24:45;;;;;;;1.17;0.88;;;21.20;1.00;;;;;;5035846;28;20561;-78
2023/07/25 11:27:12;;;;;;;1.77;1.30;;;21.10;1.00;;;;;;5053370;28;20175;-78
2023/07/25 11:29:40;;;;;;;1.42;1.00;;;21.30;1.00;;;;;;5028434;28;20049;-79
2023/07/25 11:32:07;;;;;;;1.63;1.30;;;21.20;1.00;;;;;;5059938;28;20118;-78
2023/07/25 11:34:34;;;;;;;1.55;1.05;;;21.60;1.00;;;;;;5061535;28;20045;-78
2023/07/25 11:37:08;;;;;;;1.45;1.13;;;22.00;1.00;;;;;;5045271;28;20052;-78
2023/07/25 11:39:35;;;;;;;1.05;0.95;;;22.30;1.00;;;;;;5045338;28;20044;-78
2023/07/25 11:42:02;;;;;;;0.98;0.88;;;22.60;1.00;;;;;;5044901;28;20048;-78
2023/07/25 11:44:29;;;;;;;1.05;0.88;;;22.90;1.00;;;;;;5024912;28;20095;-78
2023/07/25 11:46:56;;;;;;;1.40;1.15;;;23.20;1.00;;;;;;5041048;28;20079;-78
2023/07/25 11:49:22;;;;;;;1.38;0.82;;;23.30;1.00;;;;;;5042804;28;20154;-78
2023/07/25 11:52:09;;;;;;;1.23;0.90;;;23.70;1.00;;;;;;5046910;28;20055;-79
2023/07/25 11:54:36;;;;;;;1.52;1.08;;;23.20;1.00;;;;;;5049140;28;20044;-79
2023/07/25 11:57:06;;;;;;;2.63;1.30;;;22.40;1.00;;;;;;5048776;28;20052;-79
2023/07/25 11:59:39;;;;;;;1.65;1.00;;;21.50;1.00;;;;;;5032866;28;20068;-78
2023/07/25 12:02:06;;;;;;;1.42;0.93;;;21.20;1.00;;;;;;5047816;28;20052;-78
2023/07/25 12:04:41;;;;;;;2.70;1.20;;;20.60;1.00;;;;;;5048101;28;20127;-80
2023/07/25 12:07:07;;;;;;;1.38;1.15;;;20.20;1.00;;;;;;5032642;28;20051;-78
2023/07/25 12:09:34;;;;;;;2.03;1.25;;;20.10;1.00;;;;;;5064654;28;20060;-78
2023/07/25 12:12:01;;;;;;;1.48;1.15;;;19.90;1.00;;;;;;5031588;28;20052;-80
2023/07/25 12:14:28;;;;;;;1.88;1.17;;;19.80;1.00;;;;;;5048694;28;20056;-78
2023/07/25 12:16:54;;;;;;;1.58;1.10;;;19.70;1.00;;;;;;5063960;28;20438;-79
2023/07/25 12:19:21;;;;;;;1.73;1.30;;;19.80;1.00;;;;;;5031775;28;20084;-78
2023/07/25 12:21:48;;;;;;;1.75;1.00;;;19.80;1.00;;;;;;5046765;28;20056;-78
2023/07/25 12:24:15;;;;;;;1.90;1.00;;;19.90;1.00;;;;;;5045414;28;20197;-79
2023/07/25 12:26:44;;;;;;;1.90;1.30;;;20.00;1.00;;;;;;5044440;28;20719;-78
2023/07/25 12:29:22;;;;;;;2.03;1.23;;;20.00;1.00;;;;;;5046891;28;20051;-78
2023/07/25 12:31:48;;;;;;;1.58;1.20;;;20.20;1.00;;;;;;5045698;28;20056;-79
2023/07/25 12:34:18;;;;;;;1.10;0.75;;;20.50;1.00;;;;;;5025085;28;20132;-79
2023/07/25 12:36:49;;;;;;;1.63;1.05;;;20.90;1.00;;;;;;5043370;28;20064;-79
2023/07/25 12:39:15;;;;;;;1.33;1.05;;;21.70;1.00;;;;;;5028764;28;20107;-79
2023/07/25 12:41:43;;;;;;;1.30;1.20;;;22.00;1.00;;;;;;5024538;28;20426;-79
2023/07/25 12:44:10;;;;;;;1.42;1.05;;;23.10;1.00;;;;;;5060206;28;20052;-79
2023/07/25 12:46:40;;;;;;;1.17;1.08;;;22.80;1.00;;;;;;5026919;28;20086;-78
2023/07/25 12:49:07;;;;;;;1.42;1.20;;;23.60;1.00;;;;;;5046954;28;20058;-79
2023/07/25 12:51:34;;;;;;;1.45;1.05;;;24.50;1.00;;;;;;5063586;28;20113;-79
2023/07/25 12:54:01;;;;;;;1.17;0.90;;;24.20;1.00;;;;;;5043973;28;20052;-78